This is the latest recevied weather packets stored in our database for station/object K7MT-WX. If no packets are shown the sender has not sent any weather packets the latest 10 day(s).
| Time | Temp. | Humidity | Pressure | Rain* | Wind** | Luminosity | Snow |
|---|---|---|---|---|---|---|---|
| 1777453839 | 0.56° C | 83% | 1020.2 hPa | 0 mm | - | - | - |
| 1777452939 | 0.56° C | 83% | 1020.2 hPa | 0 mm | - | - | - |
| 1777452009 | 0.56° C | 84% | 1020.2 hPa | 0 mm | - | - | - |
| 1777451109 | 1.11° C | 82% | 1020.1 hPa | 0 mm | - | - | - |
| 1777450209 | 1.11° C | 80% | 1020.1 hPa | 0 mm | - | - | - |
| 1777449309 | 2.22° C | 79% | 1020.1 hPa | 0 mm | - | - | - |
| 1777448409 | 2.22° C | 78% | 1020.1 hPa | 0 mm | - | - | - |
| 1777447509 | 2.78° C | 78% | 1020 hPa | 0 mm | - | - | - |
| 1777446609 | 2.78° C | 78% | 1019.9 hPa | 0 mm | - | - | - |
| 1777445709 | 2.78° C | 79% | 1019.9 hPa | 0 mm | - | - | - |
| 1777444779 | 2.78° C | 78% | 1019.6 hPa | 0 mm | - | - | - |
| 1777443879 | 3.89° C | 75% | 1019.5 hPa | 0 mm | - | - | - |
| 1777442949 | 4.44° C | 73% | 1019.4 hPa | 0 mm | - | - | - |
| 1777442049 | 4.44° C | 73% | 1019.4 hPa | 0 mm | - | - | - |
| 1777441119 | 5° C | 72% | 1019.5 hPa | 0 mm | - | - | - |
| 1777440219 | 5.56° C | 70% | 1019.5 hPa | 0 mm | - | - | - |
| 1777439319 | 5.56° C | 70% | 1019.4 hPa | 0 mm | - | - | - |
| 1777438419 | 6.11° C | 68% | 1019.5 hPa | 0 mm | - | - | - |
| 1777437519 | 5° C | 69% | 1019.4 hPa | 0 mm | - | - | - |
| 1777436589 | 5.56° C | 67% | 1019.4 hPa | 0 mm | - | - | - |
| 1777435689 | 6.11° C | 65% | 1019.1 hPa | 0 mm | - | - | - |
| 1777434789 | 5.56° C | 67% | 1019 hPa | 0 mm | - | - | - |
| 1777433859 | 6.67° C | 61% | 1018.7 hPa | 0 mm | - | - | - |
| 1777432959 | 5.56° C | 67% | 1018.4 hPa | 0 mm | - | - | - |
| 1777432059 | 5.56° C | 68% | 1018.2 hPa | 0 mm | - | - | - |
* Rain latest hour (hover to see other rain measurements)
** Current wind speed in m/s (hover to see current wind gust speed)